createdAt,value
2017-08-30T00:02:10.449Z,20.70
2017-08-30T00:04:38.877Z,20.80
2017-08-30T00:07:06.602Z,20.70
2017-08-30T00:09:34.195Z,20.70
2017-08-30T00:12:02.234Z,20.70
2017-08-30T00:14:29.907Z,20.60
2017-08-30T00:16:57.497Z,20.60
2017-08-30T00:19:25.097Z,20.60
2017-08-30T00:21:52.712Z,20.60
2017-08-30T00:24:43.642Z,20.50
2017-08-30T00:27:11.223Z,20.50
2017-08-30T00:29:38.823Z,20.40
2017-08-30T00:32:06.424Z,20.40
2017-08-30T00:34:34.023Z,20.40
2017-08-30T00:37:01.674Z,20.40
2017-08-30T00:39:29.251Z,20.30
2017-08-30T00:41:56.911Z,20.30
2017-08-30T00:44:24.503Z,20.30
2017-08-30T00:46:53.163Z,20.30
2017-08-30T00:49:20.766Z,20.10
2017-08-30T00:51:49.282Z,20.10
2017-08-30T00:54:16.891Z,20.10
2017-08-30T00:56:44.468Z,20.10
2017-08-30T00:59:12.055Z,20.00
2017-08-30T01:01:39.673Z,20.00
2017-08-30T01:04:07.271Z,20.00
2017-08-30T01:06:36.651Z,20.00
2017-08-30T01:09:04.265Z,20.00
2017-08-30T01:11:31.868Z,19.90
2017-08-30T01:13:59.468Z,19.90
2017-08-30T01:16:27.062Z,19.90
2017-08-30T01:18:54.662Z,19.80
2017-08-30T01:21:22.299Z,19.80
2017-08-30T01:23:49.929Z,19.80
2017-08-30T01:26:17.490Z,19.70
2017-08-30T01:28:45.090Z,19.60
2017-08-30T01:31:12.673Z,19.60
2017-08-30T01:33:40.300Z,19.50
2017-08-30T01:36:07.900Z,19.50
2017-08-30T01:38:35.474Z,19.50
2017-08-30T01:41:03.122Z,19.50
2017-08-30T01:43:31.300Z,19.50
2017-08-30T01:45:58.900Z,19.50
2017-08-30T01:48:26.502Z,19.50
2017-08-30T01:50:54.101Z,19.50
2017-08-30T01:53:21.734Z,19.50
2017-08-30T01:55:49.296Z,19.40
2017-08-30T01:58:16.901Z,19.40
2017-08-30T02:00:44.487Z,19.40
2017-08-30T02:03:12.125Z,19.40
2017-08-30T02:05:39.697Z,19.40
2017-08-30T02:08:07.452Z,19.40
2017-08-30T02:10:35.049Z,19.40
2017-08-30T02:13:02.626Z,19.40
2017-08-30T02:15:30.207Z,19.40
2017-08-30T02:17:57.809Z,19.40
2017-08-30T02:20:25.511Z,19.40
2017-08-30T02:22:53.089Z,19.40
2017-08-30T02:25:20.745Z,19.30
2017-08-30T02:27:48.318Z,19.30
2017-08-30T02:30:15.917Z,19.30
2017-08-30T02:32:43.526Z,19.30
2017-08-30T02:35:11.094Z,19.30
2017-08-30T02:37:38.696Z,19.20
2017-08-30T02:40:06.342Z,19.20
2017-08-30T02:42:33.939Z,19.20
2017-08-30T02:45:01.773Z,19.10
2017-08-30T02:47:29.366Z,19.10
2017-08-30T02:49:56.976Z,19.10
2017-08-30T02:52:24.534Z,19.10
2017-08-30T02:54:52.118Z,19.00
2017-08-30T02:57:19.675Z,19.10
2017-08-30T02:59:47.284Z,19.00
2017-08-30T03:02:14.915Z,19.00
2017-08-30T03:04:42.502Z,19.00
2017-08-30T03:07:10.185Z,19.00
2017-08-30T03:09:37.748Z,19.00
2017-08-30T03:12:05.375Z,18.80
2017-08-30T03:14:33.017Z,18.80
2017-08-30T03:17:00.637Z,18.80
2017-08-30T03:19:28.228Z,18.80
2017-08-30T03:21:55.847Z,18.70
2017-08-30T03:24:23.460Z,18.70
2017-08-30T03:26:51.086Z,18.70
2017-08-30T03:29:18.644Z,18.70
2017-08-30T03:31:46.255Z,18.70
2017-08-30T03:34:13.869Z,18.60
2017-08-30T03:36:42.406Z,18.60
2017-08-30T03:39:09.981Z,18.50
2017-08-30T03:41:37.608Z,18.50
2017-08-30T03:44:05.180Z,18.50
2017-08-30T03:46:32.800Z,18.50
2017-08-30T03:49:00.388Z,18.50
2017-08-30T03:51:27.997Z,18.50
2017-08-30T03:53:55.596Z,18.50
2017-08-30T03:56:23.166Z,18.40
2017-08-30T03:58:50.743Z,18.40
2017-08-30T04:01:18.349Z,18.50
2017-08-30T04:03:45.940Z,18.40
2017-08-30T04:06:13.598Z,18.40
2017-08-30T04:08:41.197Z,18.40
2017-08-30T04:11:08.765Z,18.30
2017-08-30T04:13:36.349Z,18.30
2017-08-30T04:16:03.942Z,18.40
2017-08-30T04:18:31.520Z,18.30
2017-08-30T04:20:59.131Z,18.30
2017-08-30T04:23:26.748Z,18.20
2017-08-30T04:25:54.347Z,18.30
2017-08-30T04:28:21.959Z,18.30
2017-08-30T04:30:49.572Z,18.30
2017-08-30T04:33:17.151Z,18.30
2017-08-30T04:35:44.746Z,18.30
2017-08-30T04:38:12.336Z,18.20
2017-08-30T04:40:39.930Z,18.30
2017-08-30T04:43:07.520Z,18.30
2017-08-30T04:45:35.102Z,18.30
2017-08-30T04:48:02.712Z,18.30
2017-08-30T04:50:30.327Z,18.40
2017-08-30T04:52:57.969Z,18.40
2017-08-30T04:55:25.578Z,18.40
2017-08-30T04:57:53.175Z,18.40
2017-08-30T05:00:20.757Z,18.40
2017-08-30T05:02:48.384Z,18.40
2017-08-30T05:05:15.953Z,18.40
2017-08-30T05:07:43.539Z,18.50
2017-08-30T05:10:11.969Z,18.50
2017-08-30T05:12:39.557Z,18.50
2017-08-30T05:15:07.175Z,18.50
2017-08-30T05:17:34.738Z,18.50
2017-08-30T05:20:02.335Z,18.50
2017-08-30T05:22:29.907Z,18.50
2017-08-30T05:24:58.095Z,18.60
2017-08-30T05:27:25.697Z,18.60
2017-08-30T05:29:54.548Z,18.70
2017-08-30T05:32:22.159Z,18.60
2017-08-30T05:34:49.735Z,18.70
2017-08-30T05:37:17.323Z,18.70
2017-08-30T05:39:44.940Z,18.70
2017-08-30T05:42:12.535Z,18.80
2017-08-30T05:44:40.150Z,18.80
2017-08-30T05:47:07.820Z,18.90
2017-08-30T05:49:35.429Z,18.90
2017-08-30T05:52:03.018Z,18.90
2017-08-30T05:54:30.622Z,19.00
2017-08-30T05:56:58.211Z,19.00
2017-08-30T05:59:25.828Z,19.10
2017-08-30T06:01:53.452Z,19.10
2017-08-30T06:04:21.026Z,19.10
2017-08-30T06:06:48.639Z,19.20
2017-08-30T06:09:16.278Z,19.20
2017-08-30T06:11:43.913Z,19.30
2017-08-30T06:14:11.467Z,19.30
2017-08-30T06:16:39.076Z,19.40
2017-08-30T06:19:06.650Z,19.50
2017-08-30T06:21:34.270Z,19.50
2017-08-30T06:24:02.110Z,19.70
2017-08-30T06:26:29.732Z,19.80
2017-08-30T06:28:57.349Z,19.90
2017-08-30T06:31:25.408Z,19.90
2017-08-30T06:33:53.012Z,20.00
2017-08-30T06:36:20.706Z,20.10
2017-08-30T06:38:48.901Z,20.20
2017-08-30T06:41:16.471Z,20.30
2017-08-30T06:43:44.050Z,20.40
2017-08-30T06:46:11.653Z,20.50
2017-08-30T06:48:39.250Z,20.70
2017-08-30T06:51:06.823Z,20.80
2017-08-30T06:53:35.395Z,21.00
2017-08-30T06:56:03.812Z,21.10
2017-08-30T06:58:31.385Z,21.30
2017-08-30T07:00:58.996Z,21.50
2017-08-30T07:03:26.621Z,21.60
2017-08-30T07:05:54.198Z,21.80
2017-08-30T07:08:21.776Z,21.90
2017-08-30T07:10:49.390Z,22.20
2017-08-30T07:13:16.993Z,22.40
2017-08-30T07:15:44.588Z,22.50
2017-08-30T07:18:12.217Z,22.60
2017-08-30T07:20:39.834Z,22.60
2017-08-30T07:23:07.426Z,22.60
2017-08-30T07:25:35.008Z,22.70
2017-08-30T07:28:02.612Z,22.70
2017-08-30T07:30:30.212Z,22.70
2017-08-30T07:32:58.292Z,22.80
2017-08-30T07:35:25.927Z,22.80
2017-08-30T07:37:53.502Z,22.90
2017-08-30T07:40:21.115Z,22.90
2017-08-30T07:42:48.739Z,23.00
2017-08-30T07:45:16.377Z,23.10
2017-08-30T07:47:43.970Z,23.20
2017-08-30T07:50:11.553Z,23.30
2017-08-30T07:52:39.162Z,23.40
2017-08-30T07:55:08.098Z,23.50
2017-08-30T07:57:35.737Z,23.60
2017-08-30T08:00:03.500Z,23.70
2017-08-30T08:02:31.757Z,23.90
2017-08-30T08:05:00.661Z,24.10
2017-08-30T08:07:28.257Z,24.30
2017-08-30T08:09:55.815Z,24.40
2017-08-30T08:12:23.411Z,24.40
2017-08-30T08:14:50.987Z,24.50
2017-08-30T08:17:19.838Z,24.60
2017-08-30T08:19:47.419Z,24.60
2017-08-30T08:22:15.014Z,24.60
2017-08-30T08:24:42.584Z,24.70
2017-08-30T08:27:10.149Z,24.70
2017-08-30T08:29:37.722Z,24.70
2017-08-30T08:32:05.310Z,24.70
2017-08-30T08:34:32.942Z,24.70
2017-08-30T08:37:00.561Z,24.90
2017-08-30T08:39:29.115Z,24.90
2017-08-30T08:41:56.710Z,25.20
2017-08-30T08:44:24.874Z,25.20
2017-08-30T08:46:52.451Z,25.50
2017-08-30T08:49:20.046Z,25.70
2017-08-30T08:51:48.362Z,25.80
2017-08-30T08:54:15.941Z,26.00
2017-08-30T08:56:43.546Z,26.30
2017-08-30T08:59:11.140Z,26.40
2017-08-30T09:01:38.728Z,26.50
2017-08-30T09:04:06.341Z,26.60
2017-08-30T09:06:33.950Z,26.70
2017-08-30T09:09:01.532Z,26.60
2017-08-30T09:11:29.127Z,26.80
2017-08-30T09:13:56.699Z,26.80
2017-08-30T09:16:24.289Z,26.90
2017-08-30T09:18:51.862Z,26.90
2017-08-30T09:21:19.483Z,27.10
2017-08-30T09:23:47.055Z,27.20
2017-08-30T09:26:14.643Z,27.30
2017-08-30T09:28:42.230Z,27.30
2017-08-30T09:31:09.826Z,27.40
2017-08-30T09:33:37.388Z,27.50
2017-08-30T09:36:04.972Z,27.70
2017-08-30T09:38:32.563Z,27.80
2017-08-30T09:41:00.155Z,27.80
2017-08-30T09:43:27.769Z,27.80
2017-08-30T09:45:55.375Z,27.90
2017-08-30T09:48:22.939Z,27.90
2017-08-30T09:50:50.540Z,27.90
2017-08-30T09:53:18.134Z,28.10
2017-08-30T09:55:45.688Z,28.10
2017-08-30T09:58:13.282Z,28.00
2017-08-30T10:00:40.872Z,28.00
2017-08-30T10:03:08.472Z,28.00
2017-08-30T10:05:36.088Z,28.10
2017-08-30T10:08:04.446Z,28.10
2017-08-30T10:10:32.564Z,28.10
2017-08-30T10:13:00.141Z,28.30
2017-08-30T10:15:29.490Z,28.50
2017-08-30T10:17:58.431Z,28.60
2017-08-30T10:20:26.248Z,28.90
2017-08-30T10:22:54.764Z,29.00
2017-08-30T10:25:22.362Z,29.10
2017-08-30T10:27:49.960Z,29.20
2017-08-30T10:30:17.580Z,29.40
2017-08-30T10:32:45.209Z,29.50
2017-08-30T10:35:12.792Z,29.70
2017-08-30T10:37:40.407Z,30.00
2017-08-30T10:40:07.983Z,30.10
2017-08-30T10:42:35.546Z,30.40
2017-08-30T10:45:04.155Z,30.50
2017-08-30T10:47:31.736Z,30.50
2017-08-30T10:49:59.347Z,30.40
2017-08-30T10:52:26.908Z,30.50
2017-08-30T10:54:54.518Z,30.60
2017-08-30T10:57:22.108Z,30.60
2017-08-30T10:59:49.694Z,30.90
2017-08-30T11:02:17.286Z,30.90
2017-08-30T11:04:44.888Z,30.90
2017-08-30T11:07:12.930Z,30.90
2017-08-30T11:09:40.498Z,30.80
2017-08-30T11:12:08.071Z,30.60
2017-08-30T11:14:36.721Z,30.50
2017-08-30T11:17:04.302Z,30.50
2017-08-30T11:19:31.938Z,30.40
2017-08-30T11:22:01.293Z,30.10
2017-08-30T11:24:28.912Z,30.20
2017-08-30T11:26:56.503Z,30.20
2017-08-30T11:29:24.090Z,30.10
2017-08-30T11:31:51.687Z,30.10
2017-08-30T11:34:19.255Z,30.10
2017-08-30T11:36:46.891Z,30.40
2017-08-30T11:39:14.452Z,30.60
2017-08-30T11:41:42.043Z,30.50
2017-08-30T11:44:09.778Z,30.80
2017-08-30T11:46:37.392Z,31.10
2017-08-30T11:49:04.970Z,31.30
2017-08-30T11:51:32.587Z,31.20
2017-08-30T11:54:01.091Z,31.30
2017-08-30T11:56:28.689Z,31.50
2017-08-30T11:58:56.316Z,31.50
2017-08-30T12:01:23.926Z,31.60
2017-08-30T12:03:51.500Z,31.60
2017-08-30T12:06:19.167Z,31.40
2017-08-30T12:08:46.772Z,31.50
2017-08-30T12:11:14.347Z,31.50
2017-08-30T12:13:41.935Z,31.50
2017-08-30T12:16:09.556Z,31.10
2017-08-30T12:18:37.151Z,31.60
2017-08-30T12:21:04.768Z,31.40
2017-08-30T12:23:32.390Z,31.90
2017-08-30T12:25:59.963Z,32.40
2017-08-30T12:28:27.561Z,32.80
2017-08-30T12:30:55.144Z,33.30
2017-08-30T12:33:22.742Z,33.80
2017-08-30T12:35:50.332Z,33.90
2017-08-30T12:38:34.736Z,34.00
2017-08-30T12:41:02.407Z,34.10
2017-08-30T12:43:30.008Z,34.30
2017-08-30T12:45:57.627Z,34.30
2017-08-30T12:48:25.196Z,34.60
2017-08-30T12:50:52.775Z,34.80
2017-08-30T12:53:20.392Z,34.80
2017-08-30T12:55:47.988Z,34.60
2017-08-30T12:58:15.570Z,34.20
2017-08-30T13:00:43.142Z,34.40
2017-08-30T13:03:10.713Z,34.60
2017-08-30T13:05:38.271Z,34.80
2017-08-30T13:08:05.864Z,34.90
2017-08-30T13:10:33.445Z,34.80
2017-08-30T13:13:01.071Z,34.50
2017-08-30T13:15:28.730Z,34.30
2017-08-30T13:17:57.768Z,34.40
2017-08-30T13:20:25.345Z,33.70
2017-08-30T13:22:52.939Z,33.40
2017-08-30T13:25:20.540Z,33.10
2017-08-30T13:27:48.107Z,32.70
2017-08-30T13:30:15.688Z,32.30
2017-08-30T13:32:43.340Z,32.30
2017-08-30T13:35:10.941Z,32.20
2017-08-30T13:37:38.541Z,32.60
2017-08-30T13:40:06.201Z,32.90
2017-08-30T13:42:33.917Z,32.80
2017-08-30T13:45:01.535Z,32.90
2017-08-30T13:47:29.119Z,33.10
2017-08-30T13:49:56.762Z,33.50
2017-08-30T13:52:24.405Z,33.70
2017-08-30T13:54:52.009Z,33.90
2017-08-30T13:57:19.887Z,34.00
2017-08-30T13:59:47.487Z,34.00
2017-08-30T14:02:15.116Z,34.00
2017-08-30T14:04:42.722Z,33.70
2017-08-30T14:07:11.196Z,33.50
2017-08-30T14:09:38.813Z,33.60
2017-08-30T14:12:12.249Z,33.60
2017-08-30T14:14:39.836Z,33.50
2017-08-30T14:17:07.412Z,33.80
2017-08-30T14:19:35.049Z,34.10
2017-08-30T14:22:02.634Z,34.50
2017-08-30T14:24:30.275Z,35.00
2017-08-30T14:26:57.867Z,34.80
2017-08-30T14:29:25.480Z,34.60
2017-08-30T14:31:53.059Z,34.10
2017-08-30T14:34:20.652Z,34.10
2017-08-30T14:36:48.265Z,33.90
2017-08-30T14:39:15.888Z,33.80
2017-08-30T14:41:43.703Z,33.60
2017-08-30T14:44:11.305Z,33.60
2017-08-30T14:46:38.921Z,33.90
2017-08-30T14:49:06.521Z,34.10
2017-08-30T14:51:34.135Z,34.30
2017-08-30T14:54:01.725Z,34.40
2017-08-30T14:56:29.291Z,34.00
2017-08-30T14:58:56.894Z,33.80
2017-08-30T15:01:24.484Z,33.80
2017-08-30T15:03:53.120Z,33.70
2017-08-30T15:06:20.842Z,33.80
2017-08-30T15:08:48.868Z,33.40
2017-08-30T15:11:16.556Z,33.30
2017-08-30T15:13:44.206Z,32.80
2017-08-30T15:16:12.155Z,32.80
2017-08-30T15:18:39.797Z,32.80
2017-08-30T15:21:07.379Z,32.60
2017-08-30T15:23:34.980Z,32.50
2017-08-30T15:26:02.580Z,32.20
2017-08-30T15:28:30.168Z,32.00
2017-08-30T15:30:58.335Z,32.00
2017-08-30T15:33:25.957Z,32.00
2017-08-30T15:35:53.541Z,31.80
2017-08-30T15:38:21.191Z,31.70
2017-08-30T15:40:48.776Z,31.50
2017-08-30T15:43:16.362Z,31.40
2017-08-30T15:45:43.998Z,31.40
2017-08-30T15:48:11.588Z,31.30
2017-08-30T15:50:39.212Z,31.30
2017-08-30T15:53:06.835Z,30.90
2017-08-30T15:55:34.436Z,30.90
2017-08-30T15:58:02.028Z,30.90
2017-08-30T16:00:29.621Z,30.60
2017-08-30T16:02:57.211Z,30.30
2017-08-30T16:05:24.845Z,30.00
2017-08-30T16:07:52.979Z,29.80
2017-08-30T16:10:22.459Z,29.60
2017-08-30T16:12:50.055Z,29.50
2017-08-30T16:15:17.659Z,29.20
2017-08-30T16:17:45.235Z,29.10
2017-08-30T16:20:13.681Z,29.00
2017-08-30T16:22:41.281Z,28.90
2017-08-30T16:25:08.849Z,28.60
2017-08-30T16:27:36.458Z,28.50
2017-08-30T16:30:04.059Z,28.30
2017-08-30T16:32:31.663Z,28.30
2017-08-30T16:34:59.229Z,28.20
2017-08-30T16:37:26.858Z,28.00
2017-08-30T16:39:54.447Z,28.00
2017-08-30T16:42:22.064Z,27.90
2017-08-30T16:44:49.654Z,27.80
2017-08-30T16:47:17.235Z,27.70
2017-08-30T16:49:44.842Z,27.70
2017-08-30T16:52:12.414Z,27.60
2017-08-30T16:54:40.043Z,27.60
2017-08-30T16:57:08.420Z,27.50
2017-08-30T16:59:36.029Z,27.50
2017-08-30T17:02:03.682Z,27.40
2017-08-30T17:04:31.297Z,27.40
2017-08-30T17:06:58.902Z,27.50
2017-08-30T17:09:26.476Z,27.40
2017-08-30T17:11:54.119Z,27.40
2017-08-30T17:14:21.687Z,27.40
2017-08-30T17:16:49.274Z,27.40
2017-08-30T17:19:16.841Z,27.50
2017-08-30T17:21:44.436Z,27.50
2017-08-30T17:24:12.012Z,27.60
2017-08-30T17:26:39.588Z,27.70
2017-08-30T17:29:07.214Z,27.60
2017-08-30T17:31:34.791Z,27.60
2017-08-30T17:34:03.051Z,27.60
2017-08-30T17:36:30.653Z,27.60
2017-08-30T17:38:58.264Z,27.50
2017-08-30T17:41:25.857Z,27.50
2017-08-30T17:43:53.491Z,27.50
2017-08-30T17:46:21.110Z,27.40
2017-08-30T17:48:48.716Z,27.50
2017-08-30T17:51:16.304Z,27.40
2017-08-30T17:53:43.983Z,27.30
2017-08-30T17:56:11.638Z,27.30
2017-08-30T17:58:39.259Z,27.30
2017-08-30T18:01:06.888Z,27.20
2017-08-30T18:03:34.499Z,27.10
2017-08-30T18:06:02.101Z,27.10
2017-08-30T18:08:29.748Z,27.00
2017-08-30T18:10:57.386Z,27.00
2017-08-30T18:13:25.019Z,26.80
2017-08-30T18:15:52.613Z,26.80
2017-08-30T18:18:20.248Z,26.70
2017-08-30T18:20:48.189Z,26.60
2017-08-30T18:23:15.831Z,26.60
2017-08-30T18:25:43.412Z,26.40
2017-08-30T18:28:11.016Z,26.30
2017-08-30T18:30:38.656Z,26.30
2017-08-30T18:33:06.273Z,26.20
2017-08-30T18:35:33.859Z,26.20
2017-08-30T18:38:01.430Z,26.10
2017-08-30T18:40:29.061Z,26.10
2017-08-30T18:42:56.631Z,26.00
2017-08-30T18:45:24.222Z,26.00
2017-08-30T18:47:51.832Z,26.00
2017-08-30T18:50:19.460Z,26.00
2017-08-30T18:52:47.131Z,25.80
2017-08-30T18:55:14.746Z,25.80
2017-08-30T18:57:42.339Z,25.80
2017-08-30T19:00:09.969Z,25.80
2017-08-30T19:02:37.566Z,25.80
2017-08-30T19:05:05.195Z,25.80
2017-08-30T19:07:32.792Z,25.70
2017-08-30T19:10:01.161Z,25.70
2017-08-30T19:12:28.760Z,25.60
2017-08-30T19:14:56.405Z,25.30
2017-08-30T19:17:24.006Z,25.10
2017-08-30T19:19:51.637Z,25.00
2017-08-30T19:22:19.231Z,24.80
2017-08-30T19:24:46.810Z,24.60
2017-08-30T19:27:15.395Z,24.40
2017-08-30T19:29:43.950Z,24.00
2017-08-30T19:32:11.589Z,23.90
2017-08-30T19:34:39.198Z,23.60
2017-08-30T19:37:06.815Z,23.30
2017-08-30T19:39:34.423Z,23.30
2017-08-30T19:42:02.051Z,23.20
2017-08-30T19:44:29.619Z,23.30
2017-08-30T19:46:58.049Z,23.10
2017-08-30T19:49:25.615Z,23.00
2017-08-30T19:51:53.214Z,23.00
2017-08-30T19:54:20.806Z,22.90
2017-08-30T19:56:48.400Z,22.80
2017-08-30T19:59:15.995Z,22.70
2017-08-30T20:01:43.669Z,22.70
2017-08-30T20:04:11.292Z,22.60
2017-08-30T20:06:38.843Z,22.60
2017-08-30T20:09:06.412Z,22.60
2017-08-30T20:11:34.006Z,22.50
2017-08-30T20:14:01.575Z,22.50
2017-08-30T20:16:29.828Z,22.40
2017-08-30T20:18:57.444Z,22.40
2017-08-30T20:21:25.282Z,22.30
2017-08-30T20:23:52.879Z,22.30
2017-08-30T20:26:20.488Z,22.20
2017-08-30T20:28:48.439Z,22.20
2017-08-30T20:31:16.015Z,22.20
2017-08-30T20:33:43.630Z,22.10
2017-08-30T20:36:11.247Z,22.00
2017-08-30T20:38:38.850Z,22.00
2017-08-30T20:41:06.434Z,21.90
2017-08-30T20:43:35.887Z,21.70
2017-08-30T20:46:03.498Z,21.60
2017-08-30T20:48:31.059Z,21.60
2017-08-30T20:50:58.621Z,21.40
2017-08-30T20:53:26.211Z,21.40
2017-08-30T20:55:54.581Z,21.30
2017-08-30T20:58:22.154Z,21.30
2017-08-30T21:00:49.739Z,21.30
2017-08-30T21:03:17.313Z,21.30
2017-08-30T21:05:44.894Z,21.30
2017-08-30T21:08:12.484Z,21.30
2017-08-30T21:10:40.072Z,21.30
2017-08-30T21:13:07.678Z,21.30
2017-08-30T21:15:35.254Z,21.30
2017-08-30T21:18:03.550Z,21.30
2017-08-30T21:20:31.127Z,21.30
2017-08-30T21:22:58.711Z,21.30
2017-08-30T21:25:26.294Z,21.30
2017-08-30T21:27:53.859Z,21.30
2017-08-30T21:30:21.483Z,21.30
2017-08-30T21:32:49.043Z,21.30
2017-08-30T21:35:16.638Z,21.40
2017-08-30T21:37:44.260Z,21.30
2017-08-30T21:40:11.829Z,21.40
2017-08-30T21:42:39.425Z,21.30
2017-08-30T21:45:07.036Z,21.30
2017-08-30T21:47:34.644Z,21.30
2017-08-30T21:50:02.274Z,21.30
2017-08-30T21:52:29.903Z,21.40
2017-08-30T21:54:57.535Z,21.30
2017-08-30T21:57:25.129Z,21.30
2017-08-30T21:59:52.682Z,21.30
2017-08-30T22:02:20.299Z,21.30
2017-08-30T22:04:47.940Z,21.30
2017-08-30T22:07:15.538Z,21.30
2017-08-30T22:09:43.104Z,21.30
2017-08-30T22:12:10.683Z,21.30
2017-08-30T22:14:39.185Z,21.40
2017-08-30T22:17:06.762Z,21.40
2017-08-30T22:19:34.376Z,21.40
2017-08-30T22:22:01.970Z,21.40
2017-08-30T22:24:29.547Z,21.40
2017-08-30T22:26:57.104Z,21.40
2017-08-30T22:29:24.726Z,21.40
2017-08-30T22:31:52.307Z,21.40
2017-08-30T22:34:19.913Z,21.40
2017-08-30T22:36:48.146Z,21.40
2017-08-30T22:39:15.724Z,21.30
2017-08-30T22:41:43.311Z,21.30
2017-08-30T22:44:10.899Z,21.30
2017-08-30T22:46:38.488Z,21.30
2017-08-30T22:49:06.079Z,21.30
2017-08-30T22:51:33.675Z,21.30
2017-08-30T22:54:02.370Z,21.20
2017-08-30T22:56:29.921Z,21.30
2017-08-30T22:58:58.403Z,21.30
2017-08-30T23:01:25.949Z,21.30
2017-08-30T23:03:54.519Z,21.30
2017-08-30T23:06:22.121Z,21.30
2017-08-30T23:08:49.701Z,21.30
2017-08-30T23:11:17.295Z,21.30
2017-08-30T23:13:44.896Z,21.20
2017-08-30T23:16:12.461Z,21.10
2017-08-30T23:18:40.047Z,21.10
2017-08-30T23:21:07.650Z,21.20
2017-08-30T23:23:35.221Z,21.10
2017-08-30T23:26:02.840Z,21.20
2017-08-30T23:28:30.397Z,21.20
2017-08-30T23:30:57.998Z,21.20
2017-08-30T23:33:26.437Z,21.20
2017-08-30T23:35:54.055Z,21.20
2017-08-30T23:38:21.635Z,21.20
2017-08-30T23:40:49.211Z,21.20
2017-08-30T23:43:16.804Z,21.20
2017-08-30T23:45:44.357Z,21.30
2017-08-30T23:48:11.966Z,21.20
2017-08-30T23:50:39.522Z,21.30
2017-08-30T23:53:07.129Z,21.20
2017-08-30T23:55:34.708Z,21.10
2017-08-30T23:58:02.284Z,21.20
